createdAt,value
2019-03-05T00:00:46.455Z,48.22
2019-03-05T00:01:46.433Z,48.13
2019-03-05T00:02:46.423Z,48.22
2019-03-05T00:03:46.417Z,48.30
2019-03-05T00:04:46.404Z,48.43
2019-03-05T00:05:46.412Z,48.02
2019-03-05T00:06:46.384Z,47.71
2019-03-05T00:07:46.372Z,48.10
2019-03-05T00:08:46.378Z,48.22
2019-03-05T00:09:46.357Z,48.22
2019-03-05T00:10:46.341Z,48.22
2019-03-05T00:11:46.327Z,48.13
2019-03-05T00:12:46.311Z,48.10
2019-03-05T00:13:46.311Z,48.30
2019-03-05T00:14:46.295Z,50.20
2019-03-05T00:15:46.288Z,48.02
2019-03-05T00:16:46.276Z,48.90
2019-03-05T00:17:46.259Z,47.92
2019-03-05T00:18:46.303Z,48.90
2019-03-05T00:19:46.297Z,48.40
2019-03-05T00:20:46.261Z,48.20
2019-03-05T00:21:46.219Z,48.00
2019-03-05T00:22:46.221Z,48.00
2019-03-05T00:23:46.198Z,49.20
2019-03-05T00:24:46.180Z,48.80
2019-03-05T00:25:46.174Z,49.00
2019-03-05T00:26:46.181Z,49.20
2019-03-05T00:27:46.161Z,49.70
2019-03-05T00:28:46.153Z,49.50
2019-03-05T00:29:46.123Z,49.10
2019-03-05T00:30:46.125Z,49.10
2019-03-05T00:31:46.111Z,48.30
2019-03-05T00:32:46.097Z,48.40
2019-03-05T00:33:46.090Z,48.00
2019-03-05T00:34:46.076Z,48.00
2019-03-05T00:35:46.056Z,48.00
2019-03-05T00:36:46.058Z,48.20
2019-03-05T00:37:46.034Z,48.50
2019-03-05T00:38:46.031Z,48.20
2019-03-05T00:39:46.015Z,48.00
2019-03-05T00:40:46.005Z,47.92
2019-03-05T00:41:46.001Z,48.02
2019-03-05T00:42:45.992Z,48.02
2019-03-05T00:43:45.967Z,48.13
2019-03-05T00:44:45.971Z,48.22
2019-03-05T00:45:45.951Z,48.43
2019-03-05T00:46:45.943Z,48.22
2019-03-05T00:47:45.925Z,48.05
2019-03-05T00:48:45.930Z,48.25
2019-03-05T00:49:45.915Z,48.35
2019-03-05T00:50:45.908Z,48.45
2019-03-05T00:51:45.885Z,48.35
2019-03-05T00:52:45.872Z,48.35
2019-03-05T00:53:45.862Z,48.45
2019-03-05T00:54:45.854Z,48.17
2019-03-05T19:16:46.562Z,53.62
2019-03-05T19:17:46.507Z,53.52
2019-03-05T19:19:16.993Z,53.62
2019-03-05T19:20:16.955Z,53.32
2019-03-05T19:21:16.945Z,53.22
2019-03-05T19:22:16.942Z,53.42
2019-03-05T19:23:16.921Z,53.32
2019-03-05T19:24:16.925Z,53.52
2019-03-05T19:25:17.044Z,54.22
2019-03-05T19:26:16.908Z,54.20
2019-03-05T19:27:25.725Z,55.20
2019-03-05T19:28:17.873Z,55.20
2019-03-05T19:29:16.861Z,54.00
2019-03-05T19:30:16.852Z,54.80
2019-03-05T19:31:16.846Z,54.00
2019-03-05T19:32:16.825Z,54.57
2019-03-05T19:33:16.819Z,54.67
2019-03-05T19:34:16.814Z,54.37
2019-03-05T19:35:16.800Z,54.67
2019-03-05T19:36:16.797Z,53.67
2019-03-05T19:37:16.775Z,54.07
2019-03-05T19:38:16.757Z,54.24
2019-03-05T19:39:16.749Z,53.55
2019-03-05T19:40:16.735Z,53.44
2019-03-05T19:41:16.724Z,53.94
2019-03-05T19:42:16.743Z,53.24
2019-03-05T19:43:16.715Z,53.64
2019-03-05T19:46:37.091Z,54.32
2019-03-05T19:47:37.039Z,54.02
2019-03-05T19:48:37.031Z,53.89
2019-03-05T19:49:37.015Z,54.19
2019-03-05T19:50:37.002Z,54.19
2019-03-05T19:51:37.011Z,53.69
2019-03-05T19:52:37.019Z,53.57
2019-03-05T19:53:36.976Z,54.57
2019-03-05T19:54:36.986Z,53.47
2019-03-05T19:55:36.950Z,54.44
2019-03-05T19:56:36.950Z,53.44
2019-03-05T19:57:36.926Z,53.14
2019-03-05T19:58:36.965Z,53.04
2019-03-05T19:59:36.933Z,51.92
2019-03-05T20:00:37.733Z,52.72
2019-03-05T20:01:37.056Z,53.12
2019-03-05T20:02:36.879Z,53.12
2019-03-05T20:03:36.869Z,52.29
2019-03-05T20:04:36.862Z,51.50
2019-03-05T20:05:36.867Z,51.79
2019-03-05T20:06:36.839Z,51.40
2019-03-05T20:07:36.849Z,51.59
2019-03-05T20:08:40.136Z,52.09
2019-03-05T20:09:36.809Z,52.09
2019-03-05T20:10:36.790Z,52.07
2019-03-05T20:11:36.790Z,51.57
2019-03-05T20:12:36.765Z,51.97
2019-03-05T20:13:36.807Z,51.77
2019-03-05T20:14:36.753Z,51.77
2019-03-05T20:15:36.733Z,51.97
2019-03-05T20:16:36.726Z,51.37
2019-03-05T20:17:36.730Z,51.35
2019-03-05T20:18:36.706Z,51.45
2019-03-05T20:19:36.738Z,51.95
2019-03-05T20:20:36.685Z,51.45
2019-03-05T20:21:36.679Z,51.95
2019-03-05T20:22:36.658Z,51.22
2019-03-05T20:23:36.670Z,50.82
2019-03-05T20:24:36.638Z,51.22
2019-03-05T20:25:36.697Z,51.72
2019-03-05T20:26:36.615Z,51.12
2019-03-05T20:27:36.659Z,51.32
2019-03-05T20:28:36.605Z,52.02
2019-03-05T20:29:36.592Z,50.73
2019-03-05T20:30:36.574Z,50.20
2019-03-05T20:31:36.559Z,50.90
2019-03-05T20:32:36.548Z,50.62
2019-03-05T20:33:36.537Z,50.20
2019-03-05T20:34:36.530Z,50.80
2019-03-05T20:35:36.516Z,49.80
2019-03-05T20:36:36.503Z,50.20
2019-03-05T20:37:36.520Z,49.70
2019-03-05T20:38:36.521Z,51.70
2019-03-05T20:39:36.478Z,50.70
2019-03-05T20:40:36.468Z,50.50
2019-03-05T20:41:36.461Z,50.10
2019-03-05T20:42:36.440Z,49.90
2019-03-05T20:43:36.433Z,50.20
2019-03-05T20:44:36.434Z,50.02
2019-03-05T20:45:36.418Z,49.90
2019-03-05T20:46:36.408Z,50.52
2019-03-05T20:47:36.392Z,50.52
2019-03-05T20:48:36.405Z,50.73
2019-03-05T20:49:36.361Z,50.60
2019-03-05T20:50:36.381Z,50.52
2019-03-05T20:51:36.357Z,50.62
2019-03-05T20:52:36.344Z,50.43
2019-03-05T20:53:36.325Z,50.82
2019-03-05T20:54:36.311Z,50.52
2019-03-05T20:55:36.305Z,50.62
2019-03-05T20:56:36.324Z,50.32
2019-03-05T20:57:36.355Z,50.62
2019-03-05T20:58:36.282Z,50.73
2019-03-05T20:59:36.254Z,51.03
2019-03-05T21:00:36.286Z,51.32
2019-03-05T21:01:36.238Z,51.03
2019-03-05T21:02:36.234Z,51.72
2019-03-05T21:03:36.218Z,51.22
2019-03-05T21:04:36.229Z,51.03
2019-03-05T21:05:36.244Z,51.72
2019-03-05T21:06:36.357Z,51.79
2019-03-05T21:07:36.174Z,51.20
2019-03-05T21:08:36.200Z,51.50
2019-03-05T21:09:36.202Z,51.29
2019-03-05T21:10:36.142Z,51.40
2019-03-05T21:11:36.122Z,50.80
2019-03-05T21:12:36.113Z,52.00
2019-03-05T21:13:36.114Z,51.70
2019-03-05T21:14:36.091Z,51.10
2019-03-05T21:15:36.126Z,51.10
2019-03-05T21:16:36.075Z,50.90
2019-03-05T21:17:36.058Z,50.80
2019-03-05T21:18:36.054Z,51.40
2019-03-05T21:19:36.039Z,51.10
2019-03-05T21:20:36.029Z,51.40
2019-03-05T21:21:36.033Z,51.40
2019-03-05T21:22:36.012Z,50.70
2019-03-05T21:23:36.036Z,51.20
2019-03-05T21:24:36.024Z,51.10
2019-03-05T21:25:35.984Z,51.59
2019-03-05T21:26:35.964Z,51.79
2019-03-05T21:27:36.010Z,51.79
2019-03-05T21:28:35.942Z,51.59
2019-03-05T21:29:35.936Z,51.70
2019-03-05T21:30:35.961Z,51.20
2019-03-05T21:31:35.992Z,51.10
2019-03-05T21:32:35.901Z,52.00
2019-03-05T21:33:35.901Z,52.69
2019-03-05T21:34:35.880Z,52.19
2019-03-05T21:35:35.864Z,52.59
2019-03-05T21:36:35.875Z,52.39
2019-03-05T21:37:35.844Z,52.09
2019-03-05T21:38:35.841Z,52.19
2019-03-05T21:39:35.823Z,52.19
2019-03-05T21:40:35.817Z,51.79
2019-03-05T21:41:35.845Z,51.50
2019-03-05T21:42:35.805Z,52.97
2019-03-05T21:43:35.788Z,52.57
2019-03-05T21:44:35.813Z,52.07
2019-03-05T21:45:35.799Z,51.47
2019-03-05T21:46:35.787Z,51.47
2019-03-05T21:47:35.736Z,51.67
2019-03-05T21:48:35.734Z,51.27
2019-03-05T21:49:35.728Z,51.67
2019-03-05T21:50:35.711Z,52.17
2019-03-05T21:51:35.982Z,51.07
2019-03-05T21:52:36.580Z,50.08
2019-03-05T21:53:35.705Z,51.87
2019-03-05T21:54:35.671Z,51.10
2019-03-05T21:55:35.667Z,50.08
2019-03-05T21:56:35.661Z,50.48
2019-03-05T21:57:35.639Z,50.38
2019-03-05T21:58:35.626Z,50.70
2019-03-05T21:59:35.613Z,50.70
2019-03-05T22:00:35.606Z,51.10
2019-03-05T22:01:35.593Z,51.10
